createdAt,value
2023-04-09T00:02:39.386Z,9.80
2023-04-09T00:06:11.493Z,10.68
2023-04-09T00:09:36.564Z,9.27
2023-04-09T00:12:41.218Z,8.00
2023-04-09T00:15:46.232Z,6.25
2023-04-09T00:18:50.454Z,12.30
2023-04-09T00:21:54.170Z,13.07
2023-04-09T00:25:17.660Z,8.45
2023-04-09T00:29:00.782Z,8.93
2023-04-09T00:32:29.653Z,9.70
2023-04-09T00:35:56.248Z,9.45
2023-04-09T00:39:18.854Z,8.70
2023-04-09T00:42:23.217Z,8.02
2023-04-09T00:45:29.135Z,7.00
2023-04-09T00:48:34.844Z,10.57
2023-04-09T00:51:41.282Z,10.95
2023-04-09T00:55:25.456Z,11.12
2023-04-09T00:58:29.681Z,12.48
2023-04-09T01:02:00.851Z,10.52
2023-04-09T01:05:05.285Z,10.25
2023-04-09T01:08:34.996Z,10.85
2023-04-09T01:12:02.780Z,11.20
2023-04-09T01:15:38.183Z,9.65
2023-04-09T01:19:20.111Z,10.25
2023-04-09T01:23:33.085Z,12.30
2023-04-09T01:27:04.385Z,10.00
2023-04-09T01:30:12.437Z,6.60
2023-04-09T01:33:21.049Z,10.48
2023-04-09T01:36:50.719Z,7.80
2023-04-09T01:40:17.239Z,7.93
2023-04-09T01:43:21.938Z,6.35
2023-04-09T01:46:59.075Z,7.85
2023-04-09T01:50:16.495Z,8.32
2023-04-09T01:53:19.955Z,8.30
2023-04-09T01:56:24.064Z,8.70
2023-04-09T01:59:27.943Z,8.98
2023-04-09T02:03:05.367Z,7.18
2023-04-09T02:06:59.760Z,9.55
2023-04-09T02:10:14.562Z,11.02
2023-04-09T02:13:27.331Z,13.07
2023-04-09T02:16:51.294Z,7.47
2023-04-09T02:19:54.719Z,11.30
2023-04-09T02:23:04.286Z,7.53
2023-04-09T02:26:26.942Z,9.05
2023-04-09T02:29:31.514Z,8.98
2023-04-09T02:32:44.750Z,5.18
2023-04-09T02:35:58.093Z,7.30
2023-04-09T02:39:04.293Z,11.48
2023-04-09T02:42:08.076Z,10.02
2023-04-09T02:45:31.315Z,8.02
2023-04-09T02:49:17.329Z,9.80
2023-04-09T02:52:28.547Z,7.93
2023-04-09T02:55:32.315Z,6.85
2023-04-09T02:58:36.028Z,10.13
2023-04-09T03:02:08.058Z,11.90
2023-04-09T03:05:57.254Z,8.30
2023-04-09T03:17:15.610Z,7.00
2023-04-09T03:28:12.875Z,7.25
2023-04-09T03:50:37.372Z,7.45
2023-04-09T04:30:37.953Z,11.68
2023-04-09T04:34:07.955Z,8.63
2023-04-09T04:37:44.933Z,9.63
2023-04-09T04:52:03.510Z,9.70
2023-04-09T05:18:13.694Z,6.57
2023-04-09T05:59:08.112Z,8.30
2023-04-09T06:50:07.470Z,8.25
2023-04-09T06:53:37.736Z,5.75
2023-04-09T07:08:35.302Z,5.82
2023-04-09T07:15:41.749Z,3.85
2023-04-09T07:44:57.645Z,7.20
2023-04-09T07:48:28.322Z,7.25
2023-04-09T07:52:14.945Z,5.40
2023-04-09T07:56:02.696Z,10.07
2023-04-09T07:59:28.088Z,15.82
2023-04-09T08:03:14.711Z,9.88
2023-04-09T08:18:40.403Z,6.50
2023-04-09T08:48:29.817Z,6.97
2023-04-09T08:51:57.478Z,5.95
2023-04-09T08:55:40.743Z,6.20
2023-04-09T08:59:19.335Z,9.13
2023-04-09T09:02:40.305Z,7.12
2023-04-09T09:06:21.054Z,7.47
2023-04-09T09:10:09.736Z,7.18
2023-04-09T09:13:26.010Z,6.72
2023-04-09T09:17:09.456Z,6.57
2023-04-09T09:20:36.258Z,7.47
2023-04-09T09:24:17.233Z,6.47
2023-04-09T09:27:44.888Z,7.03
2023-04-09T09:31:23.686Z,7.07
2023-04-09T09:34:41.047Z,7.18
2023-04-09T09:38:17.466Z,6.43
2023-04-09T09:42:08.827Z,6.28
2023-04-09T10:15:34.790Z,9.07
2023-04-09T10:19:05.132Z,7.72
2023-04-09T10:29:52.422Z,7.65
2023-04-09T10:40:22.220Z,6.95
2023-04-09T11:10:26.475Z,8.00
2023-04-09T11:21:28.220Z,7.53
2023-04-09T11:25:08.353Z,9.05
2023-04-09T11:28:55.761Z,10.30
2023-04-09T11:47:44.819Z,8.82
2023-04-09T13:22:18.546Z,7.05
2023-04-09T13:40:12.501Z,7.65
2023-04-09T13:43:55.269Z,6.47
2023-04-09T14:01:56.362Z,7.53
2023-04-09T14:05:38.163Z,7.72
2023-04-09T14:13:00.514Z,7.03
2023-04-09T14:16:24.716Z,6.05
2023-04-09T14:20:05.598Z,7.03
2023-04-09T14:24:41.027Z,8.85
2023-04-09T14:28:21.520Z,6.93
2023-04-09T14:32:16.604Z,6.47
2023-04-09T14:35:52.339Z,6.28
2023-04-09T14:39:36.406Z,7.62
2023-04-09T15:17:04.786Z,7.55
2023-04-09T15:27:45.391Z,5.82
2023-04-09T15:31:15.987Z,5.80
2023-04-09T15:38:49.257Z,5.68
2023-04-09T15:57:38.509Z,6.65
2023-04-09T16:16:50.536Z,9.02
2023-04-09T16:20:24.444Z,8.23
2023-04-09T16:23:50.636Z,9.55
2023-04-09T16:27:31.861Z,8.05
2023-04-09T16:30:56.243Z,7.45
2023-04-09T16:34:37.437Z,10.05
2023-04-09T16:38:07.736Z,9.07
2023-04-09T16:42:21.640Z,6.32
2023-04-09T16:45:42.436Z,8.07
2023-04-09T16:49:17.642Z,8.85
2023-04-09T16:52:55.261Z,8.00
2023-04-09T16:56:19.796Z,10.75
2023-04-09T16:59:52.863Z,7.72
2023-04-09T17:03:26.055Z,9.55
2023-04-09T17:07:07.221Z,21.30
2023-04-09T17:10:46.090Z,30.00
2023-04-09T17:14:25.818Z,11.15
2023-04-09T17:18:01.921Z,10.73
2023-04-09T17:21:34.996Z,7.70
2023-04-09T17:25:10.016Z,8.68
2023-04-09T17:28:47.076Z,8.63
2023-04-09T17:32:07.070Z,9.35
2023-04-09T17:35:42.875Z,10.43
2023-04-09T17:39:16.453Z,7.32
2023-04-09T17:42:49.301Z,8.30
2023-04-09T17:46:23.927Z,8.70
2023-04-09T17:53:21.916Z,6.10
2023-04-09T18:01:09.753Z,7.22
2023-04-09T18:08:45.875Z,15.38
2023-04-09T18:12:20.886Z,9.50
2023-04-09T18:15:55.762Z,10.20
2023-04-09T18:19:31.158Z,9.68
2023-04-09T18:22:52.967Z,10.23
2023-04-09T18:26:26.885Z,7.85
2023-04-09T18:29:45.617Z,8.05
2023-04-09T18:33:05.491Z,7.70
2023-04-09T18:40:18.441Z,9.43
2023-04-09T18:44:01.942Z,13.30
2023-04-09T18:47:38.051Z,10.50
2023-04-09T18:51:14.016Z,13.65
2023-04-09T18:54:46.449Z,14.50
2023-04-09T18:58:12.901Z,15.45
2023-04-09T19:01:37.823Z,15.40
2023-04-09T19:05:24.855Z,13.95
2023-04-09T19:16:16.176Z,37.90
2023-04-09T19:19:44.985Z,34.55
2023-04-09T19:23:14.895Z,33.03
2023-04-09T19:26:22.286Z,25.20
2023-04-09T19:29:26.152Z,19.23
2023-04-09T19:32:34.144Z,22.30
2023-04-09T19:35:40.826Z,12.93
2023-04-09T19:38:43.899Z,11.00
2023-04-09T19:41:51.643Z,12.77
2023-04-09T19:44:56.252Z,14.57
2023-04-09T19:48:10.210Z,10.93
2023-04-09T19:51:20.351Z,8.40
2023-04-09T19:54:28.198Z,10.90
2023-04-09T19:57:31.957Z,9.68
2023-04-09T20:00:39.572Z,10.38
2023-04-09T20:03:43.735Z,6.70
2023-04-09T20:06:49.023Z,10.13
2023-04-09T20:09:58.731Z,9.52
2023-04-09T20:13:04.466Z,13.27
2023-04-09T20:16:08.004Z,8.07
2023-04-09T20:19:11.059Z,7.70
2023-04-09T20:22:18.010Z,7.68
2023-04-09T20:25:24.485Z,6.37
2023-04-09T20:31:31.669Z,6.50
2023-04-09T20:34:35.495Z,6.07
2023-04-09T20:37:39.981Z,7.25
2023-04-09T20:40:52.793Z,7.72
2023-04-09T20:43:56.065Z,6.80
2023-04-09T20:47:00.930Z,5.57
2023-04-09T20:50:05.116Z,9.98
2023-04-09T20:53:12.289Z,7.45
2023-04-09T20:56:34.973Z,7.05
2023-04-09T20:59:40.753Z,6.37
2023-04-09T21:02:43.972Z,7.87
2023-04-09T21:05:47.856Z,6.35
2023-04-09T21:08:52.795Z,7.10
2023-04-09T21:11:59.444Z,6.82
2023-04-09T21:15:03.084Z,7.70
2023-04-09T21:18:09.300Z,7.90
2023-04-09T21:21:16.652Z,6.87
2023-04-09T21:24:19.595Z,14.40
2023-04-09T21:27:24.233Z,7.75
2023-04-09T21:34:00.210Z,6.07
2023-04-09T21:37:29.136Z,8.13
2023-04-09T21:40:32.169Z,5.43
2023-04-09T21:43:38.839Z,7.85
2023-04-09T21:47:07.620Z,7.12
2023-04-09T21:50:15.046Z,7.85
2023-04-09T21:53:37.809Z,5.32
2023-04-09T21:56:43.075Z,7.25
2023-04-09T21:59:46.893Z,6.87
2023-04-09T22:03:01.245Z,7.80
2023-04-09T22:06:29.353Z,7.87
2023-04-09T22:09:32.118Z,6.28
2023-04-09T22:12:37.233Z,8.85
2023-04-09T22:15:59.831Z,6.12
2023-04-09T22:19:04.001Z,10.48
2023-04-09T22:22:12.264Z,10.40
2023-04-09T22:25:15.888Z,9.45
2023-04-09T22:28:18.985Z,10.65
2023-04-09T22:31:25.160Z,6.87
2023-04-09T22:34:36.238Z,8.95
2023-04-09T22:37:41.844Z,10.27
2023-04-09T22:40:46.714Z,10.40
2023-04-09T22:43:52.501Z,6.90
2023-04-09T22:46:58.565Z,8.00
2023-04-09T22:50:03.092Z,8.43
2023-04-09T22:53:06.332Z,6.35
2023-04-09T22:56:10.085Z,8.70
2023-04-09T22:59:13.051Z,10.32
2023-04-09T23:02:18.930Z,9.43
2023-04-09T23:05:23.608Z,6.70
2023-04-09T23:08:27.412Z,6.18
2023-04-09T23:11:30.655Z,9.88
2023-04-09T23:14:38.802Z,7.35
2023-04-09T23:17:45.759Z,9.82
2023-04-09T23:20:50.935Z,6.90
2023-04-09T23:23:54.256Z,8.38
2023-04-09T23:27:02.095Z,6.43
2023-04-09T23:30:09.727Z,8.15
2023-04-09T23:33:13.471Z,5.35
2023-04-09T23:36:18.457Z,6.82
2023-04-09T23:39:26.460Z,8.90
2023-04-09T23:42:33.112Z,7.68
2023-04-09T23:45:40.330Z,8.35
2023-04-09T23:48:44.049Z,8.07
2023-04-09T23:51:48.445Z,7.43
2023-04-09T23:54:54.591Z,6.03
2023-04-09T23:57:59.827Z,5.97
